createdAt,value
2023-04-15T00:00:29.650Z,62.67
2023-04-15T00:03:32.233Z,62.49
2023-04-15T00:06:35.177Z,62.20
2023-04-15T00:09:38.002Z,62.51
2023-04-15T00:12:40.523Z,61.90
2023-04-15T00:15:43.361Z,62.84
2023-04-15T00:18:45.903Z,62.33
2023-04-15T00:21:48.162Z,62.12
2023-04-15T00:24:50.807Z,62.28
2023-04-15T00:27:53.028Z,62.65
2023-04-15T00:30:55.503Z,61.70
2023-04-15T00:33:58.527Z,61.85
2023-04-15T00:37:00.851Z,62.10
2023-04-15T00:40:06.315Z,62.39
2023-04-15T00:43:08.620Z,62.34
2023-04-15T00:46:13.414Z,62.01
2023-04-15T00:49:15.722Z,62.46
2023-04-15T00:52:18.155Z,62.40
2023-04-15T00:55:21.011Z,62.29
2023-04-15T00:58:23.529Z,62.55
2023-04-15T01:01:26.545Z,62.19
2023-04-15T01:04:28.950Z,62.16
2023-04-15T01:07:31.976Z,62.60
2023-04-15T01:10:34.276Z,62.53
2023-04-15T01:13:36.886Z,62.49
2023-04-15T01:16:39.902Z,62.71
2023-04-15T01:19:42.379Z,62.47
2023-04-15T01:22:45.372Z,62.36
2023-04-15T01:25:47.986Z,62.14
2023-04-15T01:28:50.816Z,62.08
2023-04-15T01:31:55.084Z,62.28
2023-04-15T01:34:57.443Z,63.89
2023-04-15T01:38:10.099Z,63.95
2023-04-15T01:41:14.363Z,63.05
2023-04-15T01:44:16.936Z,63.32
2023-04-15T01:47:19.420Z,63.65
2023-04-15T01:50:23.138Z,62.25
2023-04-15T01:53:25.905Z,62.80
2023-04-15T01:56:28.207Z,63.95
2023-04-15T01:59:31.395Z,63.97
2023-04-15T02:02:34.665Z,63.58
2023-04-15T02:05:37.046Z,63.87
2023-04-15T02:08:39.751Z,62.10
2023-04-15T02:11:43.095Z,63.57
2023-04-15T02:14:45.377Z,64.68
2023-04-15T02:17:51.105Z,63.92
2023-04-15T02:20:53.503Z,63.34
2023-04-15T02:23:56.328Z,63.77
2023-04-15T02:26:58.611Z,62.83
2023-04-15T02:30:01.208Z,63.20
2023-04-15T02:33:04.356Z,62.79
2023-04-15T02:36:07.996Z,62.92
2023-04-15T02:39:10.344Z,63.17
2023-04-15T02:42:13.843Z,64.00
2023-04-15T02:45:16.278Z,63.61
2023-04-15T02:48:20.461Z,63.76
2023-04-15T02:51:23.033Z,63.93
2023-04-15T02:54:28.688Z,63.67
2023-04-15T02:57:31.018Z,63.36
2023-04-15T03:00:37.999Z,63.45
2023-04-15T03:03:40.540Z,64.23
2023-04-15T03:06:42.883Z,63.99
2023-04-15T03:09:46.314Z,64.89
2023-04-15T03:12:49.011Z,64.60
2023-04-15T03:15:54.526Z,65.00
2023-04-15T03:18:58.734Z,64.91
2023-04-15T03:22:01.101Z,66.02
2023-04-15T03:25:03.757Z,65.55
2023-04-15T03:28:08.199Z,66.64
2023-04-15T03:31:10.731Z,65.36
2023-04-15T03:34:13.092Z,65.78
2023-04-15T03:37:15.558Z,65.88
2023-04-15T03:40:17.801Z,64.38
2023-04-15T03:43:20.025Z,65.09
2023-04-15T03:46:22.323Z,64.72
2023-04-15T03:49:24.889Z,65.41
2023-04-15T03:52:27.198Z,65.32
2023-04-15T03:55:29.467Z,65.17
2023-04-15T03:58:31.782Z,64.63
2023-04-15T04:01:34.056Z,65.33
2023-04-15T04:04:36.352Z,65.50
2023-04-15T04:07:38.753Z,64.53
2023-04-15T04:10:40.972Z,64.77
2023-04-15T04:13:43.229Z,65.14
2023-04-15T04:16:46.028Z,65.28
2023-04-15T04:19:48.277Z,65.43
2023-04-15T04:22:50.802Z,65.25
2023-04-15T04:25:53.644Z,65.14
2023-04-15T04:28:55.887Z,65.18
2023-04-15T04:31:58.153Z,65.15
2023-04-15T04:35:00.464Z,66.35
2023-04-15T04:38:02.765Z,66.18
2023-04-15T04:41:05.475Z,65.78
2023-04-15T04:44:07.747Z,65.36
2023-04-15T04:47:10.068Z,65.60
2023-04-15T04:50:12.504Z,65.32
2023-04-15T04:53:15.155Z,65.81
2023-04-15T04:56:17.896Z,65.95
2023-04-15T04:59:20.448Z,65.52
2023-04-15T05:02:22.850Z,65.41
2023-04-15T05:05:25.539Z,65.60
2023-04-15T05:08:27.812Z,65.69
2023-04-15T05:11:30.058Z,65.48
2023-04-15T05:14:32.414Z,65.57
2023-04-15T05:17:35.422Z,65.70
2023-04-15T05:20:37.758Z,65.68
2023-04-15T05:23:40.177Z,65.99
2023-04-15T05:26:42.949Z,66.63
2023-04-15T05:29:45.312Z,66.55
2023-04-15T05:32:47.744Z,66.57
2023-04-15T05:35:50.536Z,67.04
2023-04-15T05:38:52.921Z,66.84
2023-04-15T05:41:55.201Z,67.27
2023-04-15T05:44:57.454Z,66.73
2023-04-15T05:47:59.765Z,67.02
2023-04-15T05:51:02.136Z,66.95
2023-04-15T05:54:04.525Z,66.39
2023-04-15T05:57:07.443Z,67.76
2023-04-15T06:00:10.294Z,68.41
2023-04-15T06:03:14.053Z,69.38
2023-04-15T06:06:16.350Z,69.67
2023-04-15T06:09:18.633Z,70.36
2023-04-15T06:12:20.951Z,70.41
2023-04-15T06:15:23.447Z,70.80
2023-04-15T06:18:25.752Z,70.76
2023-04-15T06:21:28.134Z,69.79
2023-04-15T06:24:30.620Z,68.59
2023-04-15T06:27:33.038Z,67.04
2023-04-15T06:30:36.198Z,65.88
2023-04-15T06:33:39.574Z,65.22
2023-04-15T06:36:41.741Z,53.62
2023-04-15T06:39:44.830Z,50.37
2023-04-15T06:42:46.945Z,45.54
2023-04-15T06:45:51.016Z,47.10
2023-04-15T06:48:53.699Z,50.09
2023-04-15T06:51:55.894Z,50.93
2023-04-15T06:54:59.549Z,49.15
2023-04-15T06:58:02.094Z,46.90
2023-04-15T07:01:04.555Z,44.45
2023-04-15T07:04:07.026Z,46.50
2023-04-15T07:07:09.561Z,44.91
2023-04-15T07:10:12.146Z,44.09
2023-04-15T07:13:14.476Z,43.96
2023-04-15T07:16:16.800Z,43.62
2023-04-15T07:19:19.104Z,41.86
2023-04-15T07:22:21.332Z,42.33
2023-04-15T07:25:23.635Z,42.02
2023-04-15T07:28:26.096Z,42.47
2023-04-15T07:31:28.568Z,42.40
2023-04-15T07:34:32.168Z,41.40
2023-04-15T07:37:34.990Z,40.93
2023-04-15T07:40:37.226Z,41.89
2023-04-15T07:43:39.775Z,41.67
2023-04-15T07:46:42.050Z,44.80
2023-04-15T07:49:44.669Z,46.61
2023-04-15T07:52:47.067Z,43.75
2023-04-15T07:55:49.416Z,45.41
2023-04-15T07:58:51.694Z,48.69
2023-04-15T08:01:54.388Z,50.46
2023-04-15T08:04:56.664Z,50.45
2023-04-15T08:07:59.069Z,50.97
2023-04-15T08:11:01.318Z,49.83
2023-04-15T08:14:03.581Z,51.78
2023-04-15T08:17:06.718Z,49.11
2023-04-15T08:20:10.227Z,47.43
2023-04-15T08:23:12.504Z,49.01
2023-04-15T08:26:14.794Z,51.20
2023-04-15T08:29:17.379Z,52.77
2023-04-15T08:32:20.311Z,54.51
2023-04-15T08:35:22.995Z,51.50
2023-04-15T08:38:25.551Z,52.50
2023-04-15T08:41:35.862Z,52.41
2023-04-15T08:44:38.980Z,51.67
2023-04-15T08:47:42.423Z,52.49
2023-04-15T08:50:45.832Z,52.31
2023-04-15T08:53:48.399Z,50.67
2023-04-15T08:56:50.699Z,50.31
2023-04-15T08:59:53.545Z,50.42
2023-04-15T09:02:57.010Z,50.19
2023-04-15T09:05:59.794Z,50.20
2023-04-15T09:09:02.237Z,51.56
2023-04-15T09:12:04.663Z,51.33
2023-04-15T09:15:09.111Z,51.99
2023-04-15T09:18:28.630Z,52.63
2023-04-15T09:21:32.035Z,54.30
2023-04-15T09:24:38.249Z,54.69
2023-04-15T09:27:52.550Z,55.18
2023-04-15T09:31:02.060Z,55.38
2023-04-15T09:34:04.563Z,55.07
2023-04-15T09:37:07.840Z,53.93
2023-04-15T09:40:10.712Z,54.75
2023-04-15T09:43:13.651Z,54.11
2023-04-15T09:46:16.245Z,53.77
2023-04-15T09:49:18.662Z,54.20
2023-04-15T09:52:28.796Z,54.99
2023-04-15T09:55:36.804Z,56.23
2023-04-15T09:58:39.358Z,54.23
2023-04-15T10:01:42.755Z,54.79
2023-04-15T10:04:45.632Z,54.77
2023-04-15T10:07:48.379Z,54.78
2023-04-15T10:10:54.266Z,55.23
2023-04-15T10:14:03.112Z,54.70
2023-04-15T10:17:06.126Z,56.43
2023-04-15T10:20:09.404Z,56.20
2023-04-15T10:23:13.444Z,56.16
2023-04-15T10:26:17.815Z,55.96
2023-04-15T10:29:20.497Z,54.77
2023-04-15T10:32:24.895Z,54.88
2023-04-15T10:35:28.677Z,54.19
2023-04-15T10:38:44.533Z,55.03
2023-04-15T10:41:46.828Z,54.74
2023-04-15T10:44:51.869Z,56.99
2023-04-15T10:47:58.391Z,56.79
2023-04-15T10:51:03.967Z,57.84
2023-04-15T10:54:09.807Z,59.15
2023-04-15T10:57:16.447Z,60.13
2023-04-15T11:00:21.005Z,59.42
2023-04-15T11:03:40.567Z,58.95
2023-04-15T11:06:46.284Z,58.60
2023-04-15T11:09:48.507Z,58.71
2023-04-15T11:12:56.732Z,58.17
2023-04-15T11:16:01.360Z,58.00
2023-04-15T11:19:07.100Z,57.35
2023-04-15T11:22:10.423Z,56.63
2023-04-15T11:25:29.437Z,57.51
2023-04-15T11:28:32.880Z,57.21
2023-04-15T11:31:35.239Z,56.78
2023-04-15T11:34:37.503Z,58.13
2023-04-15T11:37:39.780Z,56.03
2023-04-15T11:40:45.293Z,57.27
2023-04-15T11:43:50.466Z,57.88
2023-04-15T11:46:52.812Z,57.11
2023-04-15T11:49:55.057Z,57.17
2023-04-15T11:53:02.990Z,56.39
2023-04-15T11:56:05.754Z,55.82
2023-04-15T11:59:08.008Z,57.36
2023-04-15T12:02:14.265Z,58.40
2023-04-15T12:05:17.064Z,58.65
2023-04-15T12:08:19.560Z,58.36
2023-04-15T12:11:27.753Z,58.38
2023-04-15T12:14:34.066Z,57.21
2023-04-15T12:17:51.130Z,57.44
2023-04-15T12:20:54.798Z,55.48
2023-04-15T12:23:57.968Z,55.60
2023-04-15T12:27:08.703Z,56.84
2023-04-15T12:30:11.737Z,55.57
2023-04-15T12:33:14.177Z,55.53
2023-04-15T12:36:16.715Z,56.15
2023-04-15T12:39:22.738Z,56.40
2023-04-15T12:42:25.250Z,56.43
2023-04-15T12:45:28.909Z,56.62
2023-04-15T12:48:33.231Z,55.32
2023-04-15T12:51:35.551Z,56.37
2023-04-15T12:54:37.860Z,57.06
2023-04-15T12:57:40.181Z,56.28
2023-04-15T13:00:42.919Z,56.70
2023-04-15T13:03:45.520Z,55.81
2023-04-15T13:06:48.153Z,56.31
2023-04-15T13:09:50.612Z,56.68
2023-04-15T13:12:53.770Z,56.25
2023-04-15T13:15:56.528Z,56.42
2023-04-15T13:19:03.456Z,55.70
2023-04-15T13:22:07.024Z,56.37
2023-04-15T13:25:09.483Z,56.41
2023-04-15T13:28:12.062Z,55.38
2023-04-15T13:31:14.438Z,55.42
2023-04-15T13:34:16.747Z,56.19
2023-04-15T13:37:19.035Z,55.20
2023-04-15T13:40:22.350Z,55.71
2023-04-15T13:43:24.598Z,55.56
2023-04-15T13:46:26.932Z,55.63
2023-04-15T13:49:29.524Z,55.67
2023-04-15T13:52:31.767Z,56.46
2023-04-15T13:55:35.560Z,56.69
2023-04-15T13:58:38.588Z,57.03
2023-04-15T14:01:44.579Z,57.13
2023-04-15T14:04:46.820Z,56.29
2023-04-15T14:07:49.047Z,54.73
2023-04-15T14:10:51.263Z,53.78
2023-04-15T14:13:53.527Z,53.46
2023-04-15T14:16:56.733Z,55.18
2023-04-15T14:19:59.033Z,54.91
2023-04-15T14:23:01.317Z,54.98
2023-04-15T14:26:03.594Z,54.53
2023-04-15T14:29:06.013Z,56.02
2023-04-15T14:32:11.327Z,57.91
2023-04-15T14:35:14.834Z,59.07
2023-04-15T14:38:17.105Z,59.37
2023-04-15T14:41:19.440Z,60.02
2023-04-15T14:44:21.662Z,59.04
2023-04-15T14:47:24.223Z,59.65
2023-04-15T14:50:26.620Z,59.49
2023-04-15T14:53:28.866Z,59.00
2023-04-15T14:56:31.206Z,59.26
2023-04-15T14:59:33.495Z,58.56
2023-04-15T15:02:39.677Z,58.21
2023-04-15T15:05:45.182Z,56.74
2023-04-15T15:08:49.166Z,56.64
2023-04-15T15:11:51.427Z,56.41
2023-04-15T15:14:56.118Z,56.37
2023-04-15T15:17:58.595Z,56.54
2023-04-15T15:21:01.031Z,56.14
2023-04-15T15:24:03.362Z,56.23
2023-04-15T15:27:05.881Z,57.70
2023-04-15T15:30:08.699Z,58.24
2023-04-15T15:33:11.107Z,59.02
2023-04-15T15:36:13.379Z,60.23
2023-04-15T15:39:16.027Z,60.64
2023-04-15T15:42:21.576Z,61.57
2023-04-15T15:45:23.830Z,62.00
2023-04-15T15:48:26.129Z,62.45
2023-04-15T15:51:28.796Z,62.09
2023-04-15T15:54:31.941Z,61.36
2023-04-15T15:57:34.224Z,62.00
2023-04-15T16:00:36.721Z,62.97
2023-04-15T16:03:39.518Z,64.67
2023-04-15T16:06:43.143Z,65.52
2023-04-15T16:09:45.406Z,65.62
2023-04-15T16:12:47.774Z,65.99
2023-04-15T16:15:50.321Z,65.73
2023-04-15T16:18:52.578Z,64.78
2023-04-15T16:21:54.862Z,64.72
2023-04-15T16:24:57.217Z,64.88
2023-04-15T16:28:08.603Z,64.63
2023-04-15T16:31:17.191Z,66.98
2023-04-15T16:34:19.964Z,66.59
2023-04-15T16:37:22.198Z,66.77
2023-04-15T16:40:24.995Z,67.49
2023-04-15T16:43:28.023Z,68.04
2023-04-15T16:46:30.981Z,68.76
2023-04-15T16:49:34.965Z,68.74
2023-04-15T16:52:37.142Z,68.67
2023-04-15T16:55:39.918Z,69.22
2023-04-15T16:58:42.257Z,69.25
2023-04-15T17:01:44.768Z,69.35
2023-04-15T17:04:47.000Z,68.49
2023-04-15T17:07:49.231Z,68.54
2023-04-15T17:10:51.902Z,67.25
2023-04-15T17:13:54.364Z,68.22
2023-04-15T17:16:56.595Z,68.17
2023-04-15T17:19:58.880Z,66.67
2023-04-15T17:23:01.173Z,66.21
2023-04-15T17:26:03.478Z,66.40
2023-04-15T17:29:06.326Z,65.94
2023-04-15T17:32:10.213Z,65.78
2023-04-15T17:35:12.551Z,66.94
2023-04-15T17:38:14.990Z,66.14
2023-04-15T17:41:17.261Z,66.22
2023-04-15T17:44:20.270Z,65.72
2023-04-15T17:47:22.424Z,67.01
2023-04-15T17:50:24.470Z,66.32
2023-04-15T17:53:26.575Z,66.85
2023-04-15T17:56:29.361Z,66.68
2023-04-15T17:59:32.826Z,65.97
2023-04-15T18:02:37.237Z,66.32
2023-04-15T18:05:41.997Z,66.67
2023-04-15T18:08:44.881Z,66.54
2023-04-15T18:11:48.422Z,66.53
2023-04-15T18:14:50.815Z,65.89
2023-04-15T18:17:53.194Z,66.92
2023-04-15T18:20:56.063Z,67.30
2023-04-15T18:24:04.010Z,67.41
2023-04-15T18:27:06.652Z,67.11
2023-04-15T18:30:10.526Z,66.61
2023-04-15T18:33:12.886Z,67.09
2023-04-15T18:36:15.160Z,66.88
2023-04-15T18:39:17.383Z,67.01
2023-04-15T18:42:20.394Z,67.61
2023-04-15T18:45:22.662Z,68.03
2023-04-15T18:48:26.371Z,68.22
2023-04-15T18:51:28.626Z,67.78
2023-04-15T18:54:30.937Z,67.31
2023-04-15T18:57:37.603Z,68.18
2023-04-15T19:00:41.838Z,67.89
2023-04-15T19:03:44.328Z,67.10
2023-04-15T19:06:49.805Z,67.00
2023-04-15T19:09:53.122Z,66.77
2023-04-15T19:12:55.648Z,67.17
2023-04-15T19:15:57.983Z,66.78
2023-04-15T19:19:00.417Z,66.12
2023-04-15T19:22:03.505Z,66.90
2023-04-15T19:25:06.339Z,67.11
2023-04-15T19:28:08.665Z,68.46
2023-04-15T19:31:36.077Z,67.84
2023-04-15T19:34:38.384Z,67.16
2023-04-15T19:37:40.729Z,67.48
2023-04-15T19:40:42.960Z,67.04
2023-04-15T19:43:45.314Z,67.41
2023-04-15T19:46:50.007Z,68.18
2023-04-15T19:49:52.745Z,68.46
2023-04-15T19:52:55.238Z,68.63
2023-04-15T19:55:57.478Z,67.84
2023-04-15T19:58:59.878Z,68.49
2023-04-15T20:02:02.680Z,68.27
2023-04-15T20:05:09.667Z,67.06
2023-04-15T20:08:12.038Z,66.63
2023-04-15T20:11:15.152Z,66.40
2023-04-15T20:14:17.904Z,67.51
2023-04-15T20:17:20.452Z,67.64
2023-04-15T20:20:23.085Z,67.27
2023-04-15T20:23:25.419Z,67.84
2023-04-15T20:26:27.705Z,66.47
2023-04-15T20:29:29.917Z,66.99
2023-04-15T20:32:36.112Z,66.88
2023-04-15T20:35:38.985Z,67.68
2023-04-15T20:38:41.404Z,67.50
2023-04-15T20:41:43.776Z,68.46
2023-04-15T20:44:48.870Z,67.84
2023-04-15T20:47:51.225Z,68.18
2023-04-15T20:50:53.435Z,67.91
2023-04-15T20:53:55.747Z,67.89
2023-04-15T20:56:58.224Z,67.83
2023-04-15T21:00:00.528Z,67.30
2023-04-15T21:03:03.742Z,66.95
2023-04-15T21:06:06.108Z,66.57
2023-04-15T21:09:08.402Z,66.38
2023-04-15T21:12:11.251Z,67.02
2023-04-15T21:15:13.544Z,67.26
2023-04-15T21:18:15.971Z,66.05
2023-04-15T21:21:18.227Z,66.48
2023-04-15T21:24:20.605Z,66.40
2023-04-15T21:27:22.887Z,66.43
2023-04-15T21:30:25.593Z,66.64
2023-04-15T21:33:27.873Z,65.93
2023-04-15T21:36:30.211Z,66.74
2023-04-15T21:39:32.473Z,66.56
2023-04-15T21:42:34.868Z,66.55
2023-04-15T21:45:39.401Z,67.07
2023-04-15T21:48:41.930Z,66.27
2023-04-15T21:51:45.646Z,67.57
2023-04-15T21:54:47.927Z,67.46
2023-04-15T21:57:50.328Z,67.25
2023-04-15T22:00:57.386Z,67.71
2023-04-15T22:04:00.072Z,67.29
2023-04-15T22:07:02.617Z,67.11
2023-04-15T22:10:05.224Z,67.42
2023-04-15T22:13:11.176Z,66.53
2023-04-15T22:16:13.437Z,66.52
2023-04-15T22:19:15.725Z,66.52
2023-04-15T22:22:17.971Z,66.50
2023-04-15T22:25:22.372Z,67.15
2023-04-15T22:28:24.621Z,66.60
2023-04-15T22:31:27.014Z,66.49
2023-04-15T22:34:29.367Z,66.38
2023-04-15T22:37:31.619Z,66.69
2023-04-15T22:40:33.984Z,66.32
2023-04-15T22:43:36.268Z,66.11
2023-04-15T22:46:38.638Z,66.10
2023-04-15T22:49:41.498Z,67.08
2023-04-15T22:52:46.231Z,67.16
2023-04-15T22:55:49.002Z,65.97
2023-04-15T22:58:51.646Z,65.42
2023-04-15T23:01:54.006Z,65.58
2023-04-15T23:04:56.635Z,66.03
2023-04-15T23:07:58.917Z,65.71
2023-04-15T23:11:01.205Z,65.11
2023-04-15T23:14:03.459Z,65.16
2023-04-15T23:17:05.918Z,65.75
2023-04-15T23:20:08.464Z,65.60
2023-04-15T23:23:10.664Z,66.21
2023-04-15T23:26:12.932Z,65.74
2023-04-15T23:29:15.368Z,66.26
2023-04-15T23:32:17.709Z,65.60
2023-04-15T23:35:20.064Z,66.15
2023-04-15T23:38:22.294Z,66.15
2023-04-15T23:41:24.544Z,66.53
2023-04-15T23:44:27.110Z,65.95
2023-04-15T23:47:29.399Z,66.18
2023-04-15T23:50:31.715Z,65.40
2023-04-15T23:53:34.131Z,65.53
2023-04-15T23:56:36.628Z,66.80
2023-04-15T23:59:38.916Z,66.58
